Time;durP1;ratioP1;P1;durP2;ratioP2;P2;SDS_P1;SDS_P2;PMS_P1;PMS_P2;Temp;Humidity;BMP_temperature;BMP_pressure;BME280_temperature;BME280_humidity;BME280_pressure;Samples;Min_cycle;Max_cycle;Signal;HPM_P1;HPM_P2
2022/03/16 00:02:21;;;;;;;50.23;35.33;;;7.30;99.90;;;;;;5020129;28;20288;-75
2022/03/16 00:04:53;;;;;;;51.43;34.63;;;7.20;99.90;;;;;;5035831;28;20492;-75
2022/03/16 00:07:19;;;;;;;46.40;34.60;;;7.20;99.90;;;;;;5054055;28;20389;-75
2022/03/16 00:09:46;;;;;;;54.42;34.40;;;7.20;99.90;;;;;;5053300;28;20052;-75
2022/03/16 00:12:13;;;;;;;50.27;37.10;;;7.20;99.90;;;;;;5036583;28;20045;-75
2022/03/16 00:14:40;;;;;;;44.77;32.73;;;;;;;;;;5032451;28;20358;-75
2022/03/16 00:17:06;;;;;;;48.85;35.45;;;7.00;99.90;;;;;;5033555;28;20281;-75
2022/03/16 00:19:33;;;;;;;43.00;33.17;;;7.10;99.90;;;;;;5033794;28;20049;-75
2022/03/16 00:22:00;;;;;;;44.08;32.75;;;7.10;99.90;;;;;;5032384;28;20049;-75
2022/03/16 00:24:26;;;;;;;46.70;32.88;;;7.10;99.90;;;;;;5033662;28;20056;-75
2022/03/16 00:26:52;;;;;;;43.70;33.33;;;7.10;99.90;;;;;;5033392;28;20045;-75
2022/03/16 00:29:18;;;;;;;47.30;33.73;;;7.10;99.90;;;;;;5032473;28;20053;-75
2022/03/16 00:31:44;;;;;;;48.00;35.83;;;7.10;99.90;;;;;;5033043;28;20507;-75
2022/03/16 00:34:10;;;;;;;47.03;33.67;;;7.10;99.90;;;;;;5032508;28;20045;-74
2022/03/16 00:36:35;;;;;;;53.90;35.53;;;7.00;99.90;;;;;;5016158;28;20397;-75
2022/03/16 00:39:02;;;;;;;50.23;35.17;;;7.00;99.90;;;;;;5015796;28;20099;-75
2022/03/16 00:41:28;;;;;;;49.53;35.37;;;7.00;99.90;;;;;;5032266;28;20061;-75
2022/03/16 00:43:53;;;;;;;47.50;33.23;;;7.00;99.90;;;;;;5032141;28;20295;-75
2022/03/16 00:46:19;;;;;;;42.43;32.07;;;6.90;99.90;;;;;;5033501;28;20379;-74
2022/03/16 00:48:45;;;;;;;45.50;32.30;;;6.90;99.90;;;;;;5033248;28;20133;-75
2022/03/16 00:51:11;;;;;;;42.57;32.63;;;6.90;99.90;;;;;;5015667;28;20037;-74
2022/03/16 00:53:39;;;;;;;42.23;31.73;;;6.90;99.90;;;;;;5016315;28;20052;-74
2022/03/16 00:56:06;;;;;;;39.70;30.67;;;6.90;99.90;;;;;;5033025;28;20049;-75
2022/03/16 00:58:32;;;;;;;43.83;30.95;;;6.90;99.90;;;;;;5031941;28;20276;-75
2022/03/16 01:00:58;;;;;;;41.23;30.20;;;6.90;99.90;;;;;;5015391;28;20053;-74
2022/03/16 01:03:25;;;;;;;43.67;31.15;;;6.80;99.90;;;;;;5015423;28;20284;-74
2022/03/16 01:05:50;;;;;;;41.58;29.70;;;6.80;99.90;;;;;;5031334;28;20049;-75
2022/03/16 01:08:16;;;;;;;40.33;30.00;;;6.80;99.90;;;;;;5015427;28;20048;-74
2022/03/16 01:10:42;;;;;;;44.87;32.27;;;6.70;99.90;;;;;;5032110;28;20053;-74
2022/03/16 01:13:08;;;;;;;41.43;30.00;;;6.70;99.90;;;;;;5034233;28;20135;-75
2022/03/16 01:15:33;;;;;;;47.50;31.17;;;6.60;99.90;;;;;;5052868;28;20048;-74
2022/03/16 01:17:59;;;;;;;48.63;32.27;;;6.60;99.90;;;;;;5034907;28;20511;-75
2022/03/16 01:20:25;;;;;;;44.23;31.27;;;6.50;99.90;;;;;;5053013;28;20041;-74
2022/03/16 01:22:51;;;;;;;44.77;31.73;;;6.50;99.90;;;;;;5052412;28;20411;-75
2022/03/16 01:25:16;;;;;;;45.70;29.77;;;6.40;99.90;;;;;;5052591;28;20053;-75
2022/03/16 01:27:42;;;;;;;47.27;33.57;;;6.40;99.90;;;;;;5052669;28;20048;-75
2022/03/16 01:30:08;;;;;;;44.25;31.20;;;6.30;99.90;;;;;;5018423;28;20381;-75
2022/03/16 01:32:35;;;;;;;44.38;30.65;;;6.40;99.90;;;;;;5052684;28;20053;-74
2022/03/16 01:35:01;;;;;;;39.38;28.90;;;6.40;99.90;;;;;;5052270;28;20095;-74
2022/03/16 01:37:26;;;;;;;39.53;30.73;;;6.50;99.90;;;;;;5034757;28;20053;-74
2022/03/16 01:39:52;;;;;;;40.50;29.77;;;6.40;99.90;;;;;;5034747;28;20291;-75
2022/03/16 01:42:20;;;;;;;45.37;32.97;;;6.30;99.90;;;;;;5052221;28;20080;-74
2022/03/16 01:44:52;;;;;;;46.53;31.55;;;6.40;99.90;;;;;;5052409;28;20048;-75
2022/03/16 01:47:19;;;;;;;41.88;31.98;;;6.30;99.90;;;;;;5052747;28;20148;-75
2022/03/16 01:49:46;;;;;;;43.55;30.73;;;6.30;99.90;;;;;;5034949;28;20052;-75
2022/03/16 01:52:16;;;;;;;45.15;31.40;;;6.30;99.90;;;;;;5052536;28;20126;-75
2022/03/16 01:54:42;;;;;;;42.30;31.33;;;6.30;99.90;;;;;;5034681;28;20061;-74
2022/03/16 01:57:09;;;;;;;44.50;31.50;;;6.30;99.90;;;;;;5052131;28;20045;-75
2022/03/16 01:59:36;;;;;;;43.78;31.48;;;6.30;99.90;;;;;;5052478;28;20279;-75
2022/03/16 02:02:06;;;;;;;42.42;30.98;;;6.30;99.90;;;;;;5034621;28;20076;-75
2022/03/16 02:04:32;;;;;;;43.58;31.33;;;6.30;99.90;;;;;;5052311;28;20044;-74
2022/03/16 02:06:59;;;;;;;42.67;31.40;;;6.20;99.90;;;;;;5017476;28;20045;-75
2022/03/16 02:09:25;;;;;;;43.15;31.17;;;6.20;99.90;;;;;;5034812;28;20095;-74
2022/03/16 02:11:50;;;;;;;41.10;30.57;;;6.20;99.90;;;;;;5034709;28;20041;-75
2022/03/16 02:14:19;;;;;;;49.90;32.63;;;6.20;99.90;;;;;;5017666;28;20049;-75
2022/03/16 02:16:46;;;;;;;45.72;31.05;;;6.20;99.90;;;;;;5021169;28;20106;-75
2022/03/16 02:19:12;;;;;;;53.28;34.28;;;6.20;99.90;;;;;;5055717;28;20045;-75
2022/03/16 02:21:40;;;;;;;43.23;32.67;;;6.10;99.90;;;;;;5038225;28;20495;-75
2022/03/16 02:24:06;;;;;;;47.50;33.45;;;6.10;99.90;;;;;;5055577;28;20049;-75
2022/03/16 02:26:32;;;;;;;44.33;30.85;;;6.00;99.90;;;;;;5037943;28;20053;-75
2022/03/16 02:28:58;;;;;;;59.70;36.17;;;6.00;99.90;;;;;;5037739;28;20049;-75
2022/03/16 02:31:25;;;;;;;45.60;32.77;;;6.10;99.90;;;;;;5021715;28;20291;-75
2022/03/16 02:33:51;;;;;;;47.33;32.13;;;6.00;99.90;;;;;;5055753;28;20052;-75
2022/03/16 02:36:17;;;;;;;45.70;33.78;;;6.00;99.90;;;;;;5037626;28;20049;-75
2022/03/16 02:38:43;;;;;;;47.07;32.07;;;5.90;99.90;;;;;;5055839;28;20440;-75
2022/03/16 02:41:08;;;;;;;48.77;33.93;;;5.90;99.90;;;;;;5021345;28;20104;-75
2022/03/16 02:43:34;;;;;;;48.40;34.03;;;5.80;99.90;;;;;;5055556;28;20057;-75
2022/03/16 02:46:00;;;;;;;47.13;32.97;;;5.90;99.90;;;;;;5055210;28;20049;-75
2022/03/16 02:48:26;;;;;;;48.35;32.15;;;5.80;99.90;;;;;;5037972;28;20378;-75
2022/03/16 02:50:52;;;;;;;49.08;33.67;;;5.80;99.90;;;;;;5055466;28;20045;-75
2022/03/16 02:53:18;;;;;;;44.20;31.10;;;5.80;99.90;;;;;;5020776;28;20045;-75
2022/03/16 02:55:45;;;;;;;46.13;31.60;;;5.70;99.90;;;;;;5055417;28;20084;-74
2022/03/16 02:58:11;;;;;;;41.22;30.80;;;5.70;99.90;;;;;;5020876;28;20060;-75
2022/03/16 03:00:37;;;;;;;42.22;31.15;;;5.70;99.90;;;;;;5055309;28;20067;-75
2022/03/16 03:03:03;;;;;;;44.43;31.77;;;5.70;99.90;;;;;;5037155;28;20045;-75
2022/03/16 03:05:29;;;;;;;43.80;31.48;;;5.70;99.90;;;;;;5055045;28;20099;-75
2022/03/16 03:07:55;;;;;;;46.63;32.43;;;5.70;99.90;;;;;;5055146;28;20049;-75
2022/03/16 03:10:21;;;;;;;46.13;31.80;;;5.70;99.90;;;;;;5020456;28;20071;-74
2022/03/16 03:12:47;;;;;;;48.20;33.53;;;5.70;99.90;;;;;;5054775;28;20044;-74
2022/03/16 03:15:15;;;;;;;44.47;32.50;;;5.70;99.90;;;;;;5036628;28;20102;-74
2022/03/16 03:17:42;;;;;;;47.15;33.28;;;5.60;99.90;;;;;;5020954;28;20455;-74
2022/03/16 03:20:08;;;;;;;52.50;34.88;;;5.60;99.90;;;;;;5054628;28;20045;-75
2022/03/16 03:22:34;;;;;;;45.03;32.53;;;5.60;99.90;;;;;;5055145;28;20041;-74
2022/03/16 03:25:00;;;;;;;48.92;34.35;;;5.60;99.90;;;;;;5036762;28;20512;-76
2022/03/16 03:27:26;;;;;;;53.22;34.67;;;5.60;99.90;;;;;;5054471;28;20092;-75
2022/03/16 03:29:52;;;;;;;52.40;34.27;;;5.60;99.90;;;;;;5054721;28;20080;-75
2022/03/16 03:32:18;;;;;;;43.13;33.07;;;5.50;99.90;;;;;;5054400;28;20127;-75
2022/03/16 03:34:46;;;;;;;51.77;32.83;;;5.60;99.90;;;;;;5020318;28;20047;-74
2022/03/16 03:37:15;;;;;;;46.88;33.92;;;5.60;99.90;;;;;;5036708;28;20057;-75
2022/03/16 03:39:41;;;;;;;45.42;32.50;;;5.60;99.90;;;;;;5036871;28;20045;-75
2022/03/16 03:42:07;;;;;;;47.45;32.13;;;5.60;99.90;;;;;;5054188;28;20080;-75
2022/03/16 03:44:37;;;;;;;41.00;30.77;;;5.60;99.90;;;;;;5036589;28;20079;-75
2022/03/16 03:47:07;;;;;;;47.22;33.60;;;5.60;99.90;;;;;;5036446;28;20053;-75
2022/03/16 03:49:35;;;;;;;44.50;31.20;;;5.60;99.90;;;;;;5054426;28;20493;-75
2022/03/16 03:52:00;;;;;;;48.42;33.50;;;5.60;99.90;;;;;;5036576;28;20083;-74
2022/03/16 03:54:26;;;;;;;45.87;32.10;;;5.50;99.90;;;;;;5036321;28;20080;-75
2022/03/16 03:56:53;;;;;;;46.45;32.72;;;5.60;99.90;;;;;;5053977;28;20531;-74
2022/03/16 03:59:19;;;;;;;47.67;32.15;;;5.50;99.90;;;;;;5036350;28;20127;-75
2022/03/16 04:01:46;;;;;;;45.35;31.95;;;5.40;99.90;;;;;;5053775;28;20477;-74
2022/03/16 04:04:12;;;;;;;49.53;34.20;;;5.50;99.90;;;;;;5053586;28;20060;-75
2022/03/16 04:06:38;;;;;;;45.33;32.53;;;5.40;99.90;;;;;;5019459;28;20048;-74
2022/03/16 04:09:04;;;;;;;50.30;33.93;;;5.40;99.90;;;;;;5036181;28;20041;-74
2022/03/16 04:11:30;;;;;;;45.03;32.58;;;5.40;99.90;;;;;;5036491;28;20107;-75
2022/03/16 04:13:56;;;;;;;44.15;31.83;;;5.40;99.90;;;;;;5036004;28;20057;-74
2022/03/16 04:16:22;;;;;;;42.00;33.30;;;5.40;99.90;;;;;;5053204;28;20534;-74
2022/03/16 04:18:47;;;;;;;45.70;32.53;;;5.30;99.90;;;;;;5053833;28;20064;-75
2022/03/16 04:21:13;;;;;;;44.53;33.20;;;5.30;99.90;;;;;;5053472;28;20060;-74
2022/03/16 04:23:39;;;;;;;49.43;34.87;;;5.30;99.90;;;;;;5035912;28;20106;-75
2022/03/16 04:26:05;;;;;;;45.60;32.57;;;5.30;99.90;;;;;;5053639;28;20095;-75
2022/03/16 04:28:31;;;;;;;45.63;33.03;;;5.20;99.90;;;;;;5053397;28;20053;-75
2022/03/16 04:30:56;;;;;;;50.00;32.47;;;5.20;99.90;;;;;;5035932;28;20504;-75
2022/03/16 04:33:22;;;;;;;54.10;35.70;;;5.20;99.90;;;;;;5053269;28;20088;-75
2022/03/16 04:35:48;;;;;;;44.73;31.17;;;5.20;99.90;;;;;;5053498;28;20037;-75
2022/03/16 04:38:13;;;;;;;45.57;31.77;;;5.10;99.90;;;;;;5052357;28;20449;-75
2022/03/16 04:40:39;;;;;;;40.40;30.93;;;5.10;99.90;;;;;;5053389;28;20051;-75
2022/03/16 04:43:05;;;;;;;42.03;31.30;;;5.10;99.90;;;;;;5019331;28;20045;-75
2022/03/16 04:45:31;;;;;;;41.63;30.80;;;5.10;99.90;;;;;;5035212;28;20481;-74
2022/03/16 04:47:56;;;;;;;40.33;29.33;;;5.10;99.90;;;;;;5053176;28;20056;-74
2022/03/16 04:50:22;;;;;;;47.47;32.50;;;5.10;99.90;;;;;;5052921;28;20110;-74
2022/03/16 04:52:48;;;;;;;43.10;32.53;;;5.10;99.90;;;;;;5035471;28;20091;-74
2022/03/16 04:55:15;;;;;;;42.50;30.15;;;5.10;99.90;;;;;;5018584;28;20065;-74
2022/03/16 04:57:41;;;;;;;42.63;29.83;;;5.10;99.90;;;;;;5035480;28;20048;-74
2022/03/16 05:00:07;;;;;;;42.15;30.00;;;5.10;99.90;;;;;;5053131;28;20072;-74
2022/03/16 05:02:33;;;;;;;45.72;31.90;;;5.00;99.90;;;;;;5035086;28;20392;-74
2022/03/16 05:04:59;;;;;;;45.20;31.33;;;5.10;99.90;;;;;;5018514;28;20056;-74
2022/03/16 05:07:25;;;;;;;41.53;30.83;;;5.10;99.90;;;;;;5018728;28;20392;-74
2022/03/16 05:09:51;;;;;;;48.40;32.93;;;5.00;99.90;;;;;;5018904;28;20099;-74
2022/03/16 05:12:16;;;;;;;43.53;31.20;;;5.10;99.90;;;;;;5002128;28;20049;-74
2022/03/16 05:14:42;;;;;;;40.10;30.00;;;5.10;99.90;;;;;;5052720;28;20568;-73
2022/03/16 05:17:08;;;;;;;45.37;32.47;;;5.10;99.90;;;;;;5035181;28;20057;-74
2022/03/16 05:19:34;;;;;;;41.90;30.83;;;5.10;99.90;;;;;;5034717;28;20088;-74
2022/03/16 05:22:00;;;;;;;44.47;31.60;;;5.10;99.90;;;;;;5052790;28;20071;-74
2022/03/16 05:24:26;;;;;;;43.90;31.77;;;5.10;99.90;;;;;;5052485;28;20076;-75
2022/03/16 05:26:52;;;;;;;40.70;29.30;;;5.00;99.90;;;;;;5052760;28;20404;-75
2022/03/16 05:29:18;;;;;;;47.72;32.47;;;5.10;99.90;;;;;;5052464;28;20055;-75
2022/03/16 05:31:44;;;;;;;40.20;29.23;;;5.00;99.90;;;;;;5035059;28;20049;-74
2022/03/16 05:34:10;;;;;;;46.70;31.52;;;5.10;99.90;;;;;;5035082;28;20049;-74
2022/03/16 05:36:36;;;;;;;44.03;30.73;;;5.10;99.90;;;;;;5034746;28;20041;-75
2022/03/16 05:39:06;;;;;;;39.47;29.63;;;5.10;99.90;;;;;;5035190;28;20147;-74
2022/03/16 05:41:32;;;;;;;42.50;31.52;;;5.10;99.90;;;;;;5052426;28;20983;-74
2022/03/16 05:43:58;;;;;;;46.97;32.23;;;5.00;99.90;;;;;;5052361;28;20081;-74
2022/03/16 05:46:23;;;;;;;39.93;29.10;;;5.10;99.90;;;;;;5018161;28;20049;-75
2022/03/16 05:48:49;;;;;;;39.63;29.40;;;5.10;99.90;;;;;;5035014;28;20087;-74
2022/03/16 05:51:15;;;;;;;41.33;30.47;;;5.10;99.90;;;;;;5037790;28;20550;-75
2022/03/16 05:53:41;;;;;;;40.67;30.20;;;5.10;99.90;;;;;;5056570;28;20056;-74
2022/03/16 05:56:07;;;;;;;43.90;39.03;;;5.10;99.90;;;;;;5038682;28;20507;-74
2022/03/16 05:58:32;;;;;;;41.20;31.73;;;5.10;99.90;;;;;;5056157;28;20049;-74
2022/03/16 06:00:58;;;;;;;42.73;31.80;;;5.10;99.90;;;;;;5038578;28;20480;-74
2022/03/16 06:03:24;;;;;;;41.87;30.93;;;5.10;99.90;;;;;;5038486;28;20049;-74
2022/03/16 06:05:50;;;;;;;42.00;31.40;;;5.10;99.90;;;;;;5005525;28;20056;-74
2022/03/16 06:08:15;;;;;;;39.97;33.10;;;5.10;99.90;;;;;;5021987;28;20186;-75
2022/03/16 06:10:41;;;;;;;42.47;34.27;;;5.10;99.90;;;;;;5038559;28;20131;-74
2022/03/16 06:13:07;;;;;;;37.67;30.13;;;5.10;99.90;;;;;;5056139;28;20396;-74
2022/03/16 06:15:41;;;;;;;39.70;32.33;;;5.20;99.90;;;;;;5055204;28;20055;-76
2022/03/16 06:18:08;;;;;;;42.03;32.70;;;5.20;99.90;;;;;;5038298;28;20132;-75
2022/03/16 06:20:35;;;;;;;40.67;34.58;;;5.20;99.90;;;;;;5038091;28;20129;-74
2022/03/16 06:23:01;;;;;;;37.15;29.52;;;5.20;99.90;;;;;;5055978;28;20049;-74
2022/03/16 06:25:27;;;;;;;41.90;30.07;;;5.20;99.90;;;;;;5055413;28;20055;-74
2022/03/16 06:27:53;;;;;;;42.40;29.95;;;5.20;99.90;;;;;;5021803;28;20349;-74
2022/03/16 06:30:20;;;;;;;39.10;29.85;;;5.20;99.90;;;;;;5055460;28;20052;-75
2022/03/16 06:32:47;;;;;;;40.85;30.88;;;5.30;99.90;;;;;;5056066;28;20048;-74
2022/03/16 06:35:14;;;;;;;38.50;28.55;;;5.30;99.90;;;;;;5021620;28;20131;-74
2022/03/16 06:37:41;;;;;;;35.55;27.85;;;5.30;99.90;;;;;;5037639;28;20053;-78
2022/03/16 06:40:08;;;;;;;37.83;27.77;;;5.30;99.90;;;;;;5038097;28;20049;-75
2022/03/16 06:42:33;;;;;;;34.80;27.17;;;5.40;99.90;;;;;;5055330;28;20152;-74
2022/03/16 06:44:59;;;;;;;33.30;24.77;;;5.40;99.90;;;;;;5037835;28;20041;-74
2022/03/16 06:47:25;;;;;;;36.80;26.93;;;5.40;99.90;;;;;;5055341;28;20110;-75
2022/03/16 06:49:50;;;;;;;35.77;27.83;;;5.40;99.90;;;;;;5037804;28;20084;-74
2022/03/16 06:52:16;;;;;;;32.43;25.33;;;5.40;99.90;;;;;;5038012;28;20122;-74
2022/03/16 06:54:42;;;;;;;35.80;27.00;;;5.40;99.90;;;;;;5037387;28;20049;-74
2022/03/16 06:57:08;;;;;;;33.77;26.57;;;5.50;99.90;;;;;;5037584;28;20045;-74
2022/03/16 06:59:33;;;;;;;32.83;26.93;;;5.60;99.90;;;;;;5037233;28;20045;-74
2022/03/16 07:01:59;;;;;;;32.30;26.43;;;5.60;99.90;;;;;;5054495;28;20099;-74
2022/03/16 07:04:25;;;;;;;32.57;27.40;;;5.60;99.90;;;;;;5054933;28;20131;-74
2022/03/16 07:06:51;;;;;;;32.33;26.67;;;5.70;99.90;;;;;;5037092;28;20126;-74
2022/03/16 07:09:16;;;;;;;37.53;27.07;;;5.70;99.90;;;;;;5055119;28;20048;-73
2022/03/16 07:11:42;;;;;;;38.87;29.07;;;5.70;99.90;;;;;;5054818;28;20135;-74
2022/03/16 07:16:52;;;;;;;38.28;29.02;;;5.80;99.90;;;;;;5023554;28;20063;-74
2022/03/16 07:19:18;;;;;;;38.43;29.47;;;5.80;99.90;;;;;;5055112;28;20148;-74
2022/03/16 07:21:44;;;;;;;37.97;29.57;;;5.90;99.90;;;;;;5036988;28;20052;-75
2022/03/16 07:24:10;;;;;;;37.07;28.57;;;5.90;99.90;;;;;;5054821;28;20378;-74
2022/03/16 07:26:35;;;;;;;37.17;29.87;;;5.90;99.90;;;;;;5036632;28;20044;-75
2022/03/16 07:29:01;;;;;;;36.40;29.53;;;6.00;99.90;;;;;;5036995;28;20118;-74
2022/03/16 07:31:28;;;;;;;38.10;30.73;;;6.10;99.90;;;;;;5036914;28;20053;-74
2022/03/16 07:33:54;;;;;;;87.93;58.67;;;6.20;99.90;;;;;;5037112;28;20147;-74
2022/03/16 07:36:19;;;;;;;41.27;34.60;;;6.40;99.90;;;;;;5054513;28;20128;-72
2022/03/16 07:38:46;;;;;;;36.10;29.10;;;6.40;99.90;;;;;;5036317;28;20131;-74
2022/03/16 07:41:11;;;;;;;39.17;34.15;;;6.50;99.90;;;;;;5020647;28;20055;-74
2022/03/16 07:43:37;;;;;;;42.43;34.17;;;6.60;99.90;;;;;;5020244;28;20041;-75
2022/03/16 07:46:03;;;;;;;38.08;32.22;;;6.70;99.90;;;;;;5020208;28;20485;-73
2022/03/16 07:48:29;;;;;;;41.38;34.65;;;6.70;99.90;;;;;;5054035;28;20048;-74
2022/03/16 07:50:55;;;;;;;35.97;30.85;;;6.90;99.90;;;;;;5054340;28;20060;-74
2022/03/16 07:53:21;;;;;;;34.43;29.10;;;6.90;99.90;;;;;;5019848;28;20049;-75
2022/03/16 07:55:48;;;;;;;35.93;30.10;;;7.00;99.90;;;;;;5053797;28;20041;-74
2022/03/16 07:58:14;;;;;;;35.65;28.98;;;7.10;99.90;;;;;;5003968;28;20481;-74
2022/03/16 08:00:39;;;;;;;37.92;31.48;;;7.20;99.90;;;;;;5036155;28;20060;-73
2022/03/16 08:03:06;;;;;;;35.63;29.67;;;7.30;99.90;;;;;;5036489;28;20049;-74
2022/03/16 08:05:33;;;;;;;33.63;26.30;;;7.40;99.90;;;;;;5035899;28;20170;-75
2022/03/16 08:07:58;;;;;;;33.03;27.92;;;7.60;99.90;;;;;;5036535;28;20049;-73
2022/03/16 08:10:24;;;;;;;38.73;29.23;;;7.70;99.90;;;;;;5053756;28;20102;-80
2022/03/16 08:12:50;;;;;;;35.20;28.77;;;7.90;99.90;;;;;;5036062;28;20059;-75
2022/03/16 08:15:16;;;;;;;33.20;26.23;;;7.90;99.90;;;;;;5019262;28;20135;-75
2022/03/16 08:17:42;;;;;;;33.53;28.00;;;8.10;99.90;;;;;;5053675;28;20089;-74
2022/03/16 08:20:08;;;;;;;33.73;27.93;;;8.20;99.90;;;;;;5019994;28;20355;-74
2022/03/16 08:22:35;;;;;;;32.78;26.83;;;8.30;99.90;;;;;;5019188;28;20099;-75
2022/03/16 08:25:03;;;;;;;28.10;24.30;;;8.40;99.90;;;;;;5053606;28;20051;-76
2022/03/16 08:27:30;;;;;;;31.20;23.42;;;8.50;99.90;;;;;;5035694;28;20329;-78
2022/03/16 08:29:56;;;;;;;29.23;23.43;;;8.60;99.90;;;;;;5003223;28;20052;-78
2022/03/16 08:32:22;;;;;;;26.37;20.70;;;8.70;99.90;;;;;;5053622;28;20280;-78
2022/03/16 08:34:50;;;;;;;26.20;22.00;;;8.80;99.90;;;;;;5053253;28;20338;-79
2022/03/16 08:37:17;;;;;;;26.20;21.10;;;8.90;99.90;;;;;;5036180;28;20287;-78
2022/03/16 08:39:42;;;;;;;26.50;20.57;;;9.00;99.90;;;;;;5035420;28;20286;-85
2022/03/16 08:42:11;;;;;;;23.37;18.63;;;9.00;99.90;;;;;;5053526;28;20358;-78
2022/03/16 08:44:37;;;;;;;24.47;19.33;;;9.10;99.90;;;;;;5053015;28;20159;-79
2022/03/16 08:47:03;;;;;;;25.40;19.10;;;9.20;99.90;;;;;;5053473;28;20344;-81
2022/03/16 08:49:29;;;;;;;25.40;19.03;;;9.20;99.90;;;;;;5035846;28;20295;-80
2022/03/16 08:51:57;;;;;;;22.47;17.67;;;9.30;99.90;;;;;;5019046;28;20300;-77
2022/03/16 08:54:23;;;;;;;22.57;17.60;;;9.30;99.90;;;;;;5003074;28;20303;-81
2022/03/16 08:56:50;;;;;;;25.33;18.37;;;9.40;99.90;;;;;;5035142;28;20348;-83
2022/03/16 08:59:19;;;;;;;24.77;18.43;;;9.50;99.90;;;;;;5002615;28;20299;-81
2022/03/16 09:01:45;;;;;;;23.17;17.00;;;9.60;99.90;;;;;;5035520;28;20341;-82
2022/03/16 09:04:10;;;;;;;24.87;18.13;;;9.60;99.90;;;;;;5036674;28;20278;-76
2022/03/16 09:06:36;;;;;;;27.23;18.40;;;9.70;99.90;;;;;;5034873;28;20345;-77
2022/03/16 09:09:02;;;;;;;25.73;18.80;;;9.80;99.90;;;;;;5052636;28;20045;-77
2022/03/16 09:11:28;;;;;;;27.37;19.70;;;9.90;99.90;;;;;;5052906;28;20400;-81
2022/03/16 09:13:55;;;;;;;28.60;20.70;;;10.00;99.90;;;;;;5052469;28;20283;-79
2022/03/16 09:16:20;;;;;;;24.17;18.50;;;10.20;99.90;;;;;;5052962;28;20371;-76
2022/03/16 09:18:48;;;;;;;25.30;19.80;;;10.30;99.90;;;;;;5034823;28;20366;-85
2022/03/16 09:21:14;;;;;;;24.97;19.00;;;10.30;99.90;;;;;;5035282;28;20048;-82
2022/03/16 09:23:40;;;;;;;27.73;20.30;;;10.40;99.90;;;;;;5052603;28;20287;-84
2022/03/16 09:26:06;;;;;;;24.87;19.60;;;10.40;99.90;;;;;;5052329;28;20384;-86
2022/03/16 09:28:32;;;;;;;28.53;19.00;;;10.50;99.90;;;;;;5035447;28;20053;-82
2022/03/16 09:30:58;;;;;;;27.73;20.60;;;10.50;99.90;;;;;;5018436;28;20775;-81
2022/03/16 09:33:25;;;;;;;27.93;20.70;;;;;;;;;;5035254;28;20157;-73
2022/03/16 09:35:55;;;;;;;27.37;21.37;;;;;;;;;;5034863;28;20395;-72
2022/03/16 09:38:20;;;;;;;26.33;19.50;;;10.80;99.90;;;;;;5052827;28;20276;-72
2022/03/16 09:40:53;;;;;;;26.27;20.03;;;10.90;99.90;;;;;;5052553;28;20299;-84
2022/03/16 09:43:22;;;;;;;26.30;18.93;;;10.70;99.90;;;;;;5035105;28;20063;-80
2022/03/16 09:45:57;;;;;;;25.13;18.40;;;10.80;99.90;;;;;;5034823;28;20307;-85
2022/03/16 09:48:23;;;;;;;26.67;19.50;;;10.80;99.90;;;;;;5052769;28;20287;-81
2022/03/16 09:50:53;;;;;;;27.23;20.07;;;10.90;99.90;;;;;;5018225;28;20045;-82
2022/03/16 09:53:22;;;;;;;24.63;19.60;;;10.90;99.90;;;;;;5052840;28;20283;-89
2022/03/16 09:55:48;;;;;;;27.03;19.83;;;11.00;99.90;;;;;;5034530;28;20348;-83
2022/03/16 09:58:14;;;;;;;23.23;16.97;;;11.00;99.90;;;;;;5052460;28;20294;-85
2022/03/16 10:00:40;;;;;;;22.07;16.43;;;11.10;99.90;;;;;;5034142;28;20299;-78
2022/03/16 10:03:05;;;;;;;24.33;16.63;;;11.20;99.90;;;;;;5034840;28;20052;-83
2022/03/16 10:05:32;;;;;;;23.03;15.93;;;11.20;99.90;;;;;;5052877;28;20052;-74
2022/03/16 10:08:02;;;;;;;23.40;16.17;;;11.30;99.90;;;;;;5052121;28;20049;-75
2022/03/16 10:13:23;;;;;;;22.00;15.40;;;11.40;98.70;;;;;;5034968;28;20294;-78
2022/03/16 10:16:07;;;;;;;17.67;13.60;;;11.50;99.90;;;;;;5017577;28;20292;-79
2022/03/16 10:18:36;;;;;;;20.43;13.77;;;11.50;99.00;;;;;;5034659;28;20307;-72
2022/03/16 10:21:04;;;;;;;18.13;13.10;;;11.50;96.60;;;;;;5051995;28;20275;-77
2022/03/16 10:23:30;;;;;;;17.97;12.80;;;11.50;97.10;;;;;;5052133;28;20279;-81
2022/03/16 10:26:00;;;;;;;19.60;12.23;;;11.70;97.30;;;;;;5034271;28;20296;-78
2022/03/16 10:28:31;;;;;;;15.40;11.63;;;11.60;92.10;;;;;;5018206;28;20638;-75
2022/03/16 10:30:58;;;;;;;14.43;11.37;;;11.60;93.10;;;;;;5017312;28;20291;-74
2022/03/16 10:33:31;;;;;;;16.87;11.57;;;11.70;94.30;;;;;;5034496;28;20299;-75
2022/03/16 10:36:00;;;;;;;18.60;12.00;;;11.80;95.60;;;;;;5034362;28;20299;-74
2022/03/16 10:38:26;;;;;;;17.27;11.77;;;11.80;92.10;;;;;;5021273;28;20299;-78
2022/03/16 10:41:09;;;;;;;16.97;12.10;;;11.90;91.90;;;;;;5037756;28;20295;-86
2022/03/16 10:46:37;;;;;;;18.03;11.50;;;12.10;92.20;;;;;;5040831;28;20311;-74
2022/03/16 10:49:12;;;;;;;17.00;12.27;;;12.20;91.20;;;;;;5055469;28;20283;-81
2022/03/16 10:51:38;;;;;;;15.90;12.07;;;12.20;86.80;;;;;;5022010;28;20291;-81
2022/03/16 10:54:05;;;;;;;15.53;10.63;;;12.20;81.70;;;;;;5037314;28;20334;-83
2022/03/16 10:56:31;;;;;;;17.60;11.10;;;12.30;81.30;;;;;;5037852;28;20783;-76
2022/03/16 10:58:59;;;;;;;14.70;11.13;;;12.30;85.10;;;;;;5055146;28;20310;-73
2022/03/16 11:01:26;;;;;;;16.10;11.43;;;12.40;84.20;;;;;;5037785;28;20345;-81
2022/03/16 11:03:55;;;;;;;16.13;11.30;;;12.40;80.70;;;;;;5037458;28;20373;-74
2022/03/16 11:06:21;;;;;;;17.80;14.90;;;12.50;81.80;;;;;;5020971;28;20706;-81
2022/03/16 11:08:49;;;;;;;12.47;10.60;;;12.50;80.60;;;;;;5055867;28;20297;-72
2022/03/16 11:14:02;;;;;;;14.47;9.87;;;12.60;74.80;;;;;;5054662;28;20319;-74
2022/03/16 11:16:29;;;;;;;15.07;10.20;;;12.60;74.90;;;;;;5021193;28;20283;-74
2022/03/16 11:18:58;;;;;;;12.80;9.63;;;12.70;74.00;;;;;;5054737;28;20375;-85
2022/03/16 11:21:30;;;;;;;13.77;9.70;;;12.70;75.20;;;;;;5020774;28;20793;-74
2022/03/16 11:24:16;;;;;;;16.30;8.97;;;12.70;73.60;;;;;;5037050;28;20272;-73
2022/03/16 11:27:15;;;;;;;16.60;10.37;;;12.80;74.30;;;;;;5054857;28;20300;-75
2022/03/16 11:30:15;;;;;;;17.37;10.67;;;12.90;74.10;;;;;;5037223;28;20623;-76
2022/03/16 11:32:43;;;;;;;14.20;10.03;;;12.80;73.60;;;;;;5037180;28;20288;-76
2022/03/16 11:35:13;;;;;;;14.10;9.87;;;12.90;75.00;;;;;;5054412;28;20279;-76
2022/03/16 11:37:44;;;;;;;12.90;10.00;;;12.90;72.70;;;;;;5054840;28;20307;-75
2022/03/16 11:40:15;;;;;;;13.23;9.63;;;12.90;73.00;;;;;;5036812;28;20299;-76
2022/03/16 11:43:08;;;;;;;15.63;11.03;;;12.90;71.30;;;;;;5054738;28;20274;-75
2022/03/16 11:45:41;;;;;;;15.40;10.80;;;12.90;72.70;;;;;;5054346;28;20799;-75
2022/03/16 11:51:08;;;;;;;14.13;10.17;;;12.90;72.30;;;;;;5053898;28;20836;-77
2022/03/16 11:53:47;;;;;;;13.50;10.27;;;13.00;72.60;;;;;;5020453;28;20387;-81
2022/03/16 11:56:41;;;;;;;14.13;9.73;;;13.00;71.70;;;;;;5054072;28;20279;-77
2022/03/16 11:59:19;;;;;;;14.10;9.63;;;12.90;71.60;;;;;;5054108;28;20334;-71
2022/03/16 12:02:01;;;;;;;11.47;8.93;;;13.00;71.00;;;;;;5054105;28;20292;-79
2022/03/16 12:04:38;;;;;;;11.83;8.70;;;13.00;72.30;;;;;;5054269;28;20283;-80
2022/03/16 12:07:06;;;;;;;12.37;8.63;;;13.10;69.70;;;;;;5036336;28;20394;-81
2022/03/16 12:09:54;;;;;;;15.83;12.73;;;13.10;69.70;;;;;;5036703;28;20284;-83
2022/03/16 12:12:51;;;;;;;18.10;12.37;;;13.10;69.50;;;;;;5036501;28;20291;-81
2022/03/16 12:15:39;;;;;;;17.27;12.43;;;13.20;69.40;;;;;;5036298;28;20398;-84
2022/03/16 12:18:06;;;;;;;12.80;9.17;;;13.20;68.80;;;;;;5019825;28;20292;-76
2022/03/16 12:20:37;;;;;;;13.40;9.30;;;13.20;68.90;;;;;;5053698;28;20290;-76
2022/03/16 12:23:09;;;;;;;13.13;9.70;;;13.20;69.30;;;;;;5053567;28;20282;-76
2022/03/16 12:25:37;;;;;;;13.20;10.10;;;13.30;68.50;;;;;;5036036;28;20303;-75
2022/03/16 12:30:55;;;;;;;14.67;10.43;;;13.30;66.50;;;;;;5053405;28;20323;-76
2022/03/16 12:33:23;;;;;;;15.23;9.93;;;13.40;67.50;;;;;;5036238;28;20295;-75
2022/03/16 12:35:52;;;;;;;15.17;10.00;;;13.40;67.80;;;;;;5019175;28;20378;-75
2022/03/16 12:38:20;;;;;;;12.33;9.60;;;13.40;68.20;;;;;;5035901;28;20370;-75
2022/03/16 12:43:32;;;;;;;13.97;10.00;;;13.40;66.20;;;;;;5035063;28;20751;-76
2022/03/16 12:46:23;;;;;;;13.93;9.73;;;13.40;66.10;;;;;;5052677;28;20704;-76
2022/03/16 12:48:54;;;;;;;18.17;11.93;;;13.40;67.30;;;;;;5052656;28;20828;-75
2022/03/16 12:51:33;;;;;;;16.40;12.27;;;13.40;67.60;;;;;;5035932;28;20837;-76
2022/03/16 12:53:58;;;;;;;15.03;12.07;;;13.50;66.50;;;;;;5053162;28;20330;-76
2022/03/16 12:56:24;;;;;;;15.53;11.10;;;13.50;66.10;;;;;;5053340;28;20319;-75
2022/03/16 12:58:56;;;;;;;14.37;11.20;;;13.50;65.60;;;;;;5035493;28;20092;-75